MSC Vittoria — 3EHF3 — position and weather

sailwx.info

Track history (hours):
 
Tides and Currents Weather Stations Pressure Air Temp Water Temp Dewpoint Dewpoint Depression Visibility Wind Speed Wind Dir Waves Ship Positions

MSC Vittoria

Last reported at 2018-Jun-14 15:25 UTC. Time now 2018-Jun-19 08:47 UTC.
Position N 37°49' W 030°19'.

Length 325 m; draft 13.6 m.

Type: Ship (hazmat cat A). MMSI: 372051000.

Date/timePositionNaut miles runAvg speedWind from/ knotsBaromVisibWave heightAir tempDewpointWater temp
2018-Jun-14 15:25N 37°49' W 030°19'820.0
2018-Jun-14 15:00N 37°49' W 030°08'1120.3
2018-Jun-14 14:29N 37°50' W 029°55'1020.2
2018-Jun-14 14:00N 37°52' W 029°43'1020.3
2018-Jun-14 13:30N 37°54' W 029°30'1020.2
2018-Jun-14 13:00N 37°56' W 029°18'1020.0
2018-Jun-14 12:30N 37°58' W 029°05'1020.2
2018-Jun-14 12:00N 37°60' W 028°53'1020.0
2018-Jun-14 11:30N 38°01' W 028°40'1020.5
2018-Jun-14 11:00N 38°03' W 028°27'1020.5
2018-Jun-14 10:30N 38°05' W 028°15'1020.5
2018-Jun-14 10:00N 38°07' W 028°02'1020.2
2018-Jun-14 09:30N 38°09' W 027°49'1020.2
2018-Jun-14 09:00N 38°11' W 027°36'1019.9
2018-Jun-14 08:30N 38°13' W 027°24'1120.9
2018-Jun-14 08:00N 38°15' W 027°11'1020.5
2018-Jun-14 07:30N 38°17' W 026°58'1020.4
2018-Jun-14 07:01N 38°18' W 026°45'1020.8
2018-Jun-14 06:30N 38°20' W 026°32'1020.4
2018-Jun-14 06:00N 38°22' W 026°20'1020.6
2018-Jun-14 05:30N 38°24' W 026°07'1020.4
2018-Jun-14 05:00N 38°26' W 025°54'1020.4
2018-Jun-14 04:30N 38°28' W 025°41'1020.2
2018-Jun-14 04:01N 38°30' W 025°29'1020.6
2018-Jun-14 03:30N 38°32' W 025°15'1020.1
2018-Jun-14 03:00N 38°34' W 025°03'1020.3
2018-Jun-14 02:31N 38°34' W 024°50'1020.3
2018-Jun-14 02:00N 38°33' W 024°37'1020.3
2018-Jun-14 01:30N 38°33' W 024°24'1020.2
2018-Jun-14 01:00N 38°32' W 024°11'1020.3
2018-Jun-14 00:30N 38°31' W 023°58'1020.1
2018-Jun-14 00:00N 38°31' W 023°45'1020.2
2018-Jun-13 23:30N 38°30' W 023°32'1120.4
2018-Jun-13 22:59N 38°30' W 023°19'4820.3
2018-Jun-13 20:36N 38°27' W 022°17'53220.3
2018-Jun-12 18:21N 38°05' W 011°00'1020.5
2018-Jun-12 17:53N 38°04' W 010°48'820.5
2018-Jun-12 17:30N 38°03' W 010°38'1020.3
2018-Jun-12 16:59N 38°02' W 010°25'1720.1
2018-Jun-12 16:07N 38°00' W 010°03'1720.1
2018-Jun-12 15:17N 37°58' W 009°42'720.4
2018-Jun-12 14:56N 37°58' W 009°33'920.3
2018-Jun-12 14:30N 37°57' W 009°22'1020.4
2018-Jun-12 14:01N 37°56' W 009°09'1019.3
2018-Jun-12 13:31N 37°54' W 008°57'510.5
2018-Jun-12 13:00N 37°55' W 008°50'1 1.4
2018-Jun-12 12:30N 37°56' W 008°51'0 0.0
2018-Jun-12 11:57N 37°56' W 008°51'0 0.0
2018-Jun-12 11:30N 37°56' W 008°51'0 0.0
2018-Jun-12 11:00N 37°56' W 008°51'0 0.0
2018-Jun-12 10:30N 37°56' W 008°51'0 0.0
2018-Jun-12 09:57N 37°56' W 008°51'0 0.0
2018-Jun-12 09:30N 37°56' W 008°51'0 0.0
2018-Jun-12 09:00N 37°56' W 008°51'0 0.0
2018-Jun-12 08:30N 37°56' W 008°51'0 0.0
2018-Jun-12 08:00N 37°56' W 008°51'0 0.0
2018-Jun-12 07:30N 37°56' W 008°51'0 0.0
2018-Jun-12 07:00N 37°56' W 008°51'0 0.0
2018-Jun-12 06:30N 37°56' W 008°51'0 0.0
2018-Jun-12 06:00N 37°56' W 008°51'0 0.0
2018-Jun-12 05:30N 37°56' W 008°51'0 0.0
2018-Jun-12 05:00N 37°56' W 008°51'0 0.0
2018-Jun-12 04:30N 37°56' W 008°51'0 0.0
2018-Jun-12 04:00N 37°56' W 008°51'0 0.0
2018-Jun-12 03:30N 37°56' W 008°51'0 0.0
2018-Jun-12 02:57N 37°56' W 008°51'0 0.0
2018-Jun-12 02:30N 37°56' W 008°51'0 0.0
2018-Jun-12 02:00N 37°56' W 008°51'0 0.0
2018-Jun-12 01:30N 37°56' W 008°51'0 0.0
2018-Jun-12 01:00N 37°56' W 008°51'0 0.0
2018-Jun-12 00:27N 37°56' W 008°51'0 0.0
2018-Jun-11 23:57N 37°56' W 008°51'0 0.0
2018-Jun-11 23:30N 37°56' W 008°51'0 0.0
2018-Jun-11 23:00N 37°56' W 008°51'0 0.0
2018-Jun-11 22:30N 37°56' W 008°51'0 0.0
2018-Jun-11 22:00N 37°56' W 008°51'0 0.0
2018-Jun-11 21:30N 37°56' W 008°51'0 0.0
2018-Jun-11 21:00N 37°56' W 008°51'0 0.0
2018-Jun-11 20:27N 37°56' W 008°51'0 0.0
2018-Jun-11 20:00N 37°56' W 008°51'0 0.0
2018-Jun-11 19:30N 37°56' W 008°51'0 0.0
2018-Jun-11 19:00N 37°56' W 008°51'1 1.9
2018-Jun-11 18:30N 37°55' W 008°50'2 3.7
2018-Jun-11 18:00N 37°53' W 008°50'3 5.4
2018-Jun-11 17:30N 37°51' W 008°52'714.4
2018-Jun-11 17:00N 37°44' W 008°56'815.3
2018-Jun-11 16:30N 37°37' W 008°60'612.3
2018-Jun-11 16:00N 37°32' W 009°03'4 8.5
2018-Jun-11 15:28N 37°28' W 009°05'4 5.9
2018-Jun-11 14:46N 37°24' W 009°08'2 6.1
2018-Jun-11 14:29N 37°22' W 009°09'3 6.0
2018-Jun-11 14:00N 37°20' W 009°10'38 5.7
2018-Jun-11 07:19N 36°42' W 009°01'4 9.4
2018-Jun-11 06:54N 36°41' W 008°57'4 9.2
2018-Jun-11 06:30N 36°40' W 008°52'5 9.3
2018-Jun-11 05:58N 36°38' W 008°46'9 9.5
2018-Jun-11 05:01N 36°36' W 008°36'0 9.6
2018-Jun-11 04:59N 36°36' W 008°35'20 9.7
2018-Jun-11 02:55N 36°29' W 008°11'128 9.6
2018-Jun-10 13:29N 35°58' W 005°37'5 9.9
2018-Jun-10 13:00N 35°59' W 005°31'510.3
2018-Jun-10 12:31N 36°01' W 005°25'5 9.4
2018-Jun-10 12:00N 36°06' W 005°24'3 6.6
2018-Jun-10 11:29N 36°09' W 005°26'0 0.4
2018-Jun-10 10:59N 36°09' W 005°26'0 0.0
2018-Jun-10 09:44N 36°09' W 005°26'0 0.0
2018-Jun-10 08:47N 36°09' W 005°26'0 0.0
2018-Jun-10 08:08N 36°09' W 005°26'0 0.0
2018-Jun-10 07:50N 36°09' W 005°26'0 0.0
2018-Jun-10 07:26N 36°09' W 005°26'0 0.0
2018-Jun-10 06:56N 36°09' W 005°26'0 0.1
2018-Jun-10 06:29N 36°09' W 005°26'0 0.0
2018-Jun-10 05:56N 36°09' W 005°26'0 0.0
2018-Jun-10 05:26N 36°09' W 005°26'0 0.0
2018-Jun-10 04:59N 36°09' W 005°26'0 0.0
2018-Jun-10 04:29N 36°09' W 005°26'0 0.0
2018-Jun-10 03:59N 36°09' W 005°26'0 0.0
2018-Jun-10 03:29N 36°09' W 005°26'0 0.0
2018-Jun-10 02:56N 36°09' W 005°26'0 0.0
2018-Jun-10 02:29N 36°09' W 005°26'0 0.0
2018-Jun-10 01:59N 36°09' W 005°26'0 0.0
2018-Jun-10 01:14N 36°09' W 005°26'0 0.0
2018-Jun-10 00:56N 36°09' W 005°26'0 0.0
2018-Jun-10 00:29N 36°09' W 005°26'0 0.0
2018-Jun-10 00:00N 36°09' W 005°26'2 4.1
2018-Jun-09 23:30N 36°08' W 005°24'1 2.6
2018-Jun-09 23:00N 36°07' W 005°23'4 8.0
2018-Jun-09 22:30N 36°05' W 005°19'918.8
2018-Jun-09 22:00N 36°06' W 005°07'18818.2
2018-Jun-09 11:39N 37°00' W 001°23'2219.1
2018-Jun-09 10:31N 37°15' W 001°02'019.0
2018-Jun-09 10:30N 37°15' W 001°02'1019.0
2018-Jun-09 09:58N 37°21' W 000°52'918.8
2018-Jun-09 09:30N 37°27' W 000°44'919.0
2018-Jun-09 09:00N 37°33' W 000°35'1019.3
2018-Jun-09 08:30N 37°41' W 000°28'1019.3
2018-Jun-09 08:00N 37°49' W 000°21'1019.5
2018-Jun-09 07:30N 37°57' W 000°14'1019.5
2018-Jun-09 06:59N 38°05' W 000°07'1919.2
2018-Jun-09 06:01N 38°21' E 000°06'118.4
2018-Jun-09 05:59N 38°22' E 000°06'2218.8
2018-Jun-09 04:51N 38°40' E 000°21'5617.3
2018-Jun-09 01:37N 39°26' W 000°19'0 3.3
2018-Jun-09 01:30N 39°26' W 000°19'1 1.0
2018-Jun-09 00:59N 39°26' W 000°20'0 0.0
2018-Jun-08 22:18N 39°26' W 000°20'0 0.0
2018-Jun-08 22:00N 39°26' W 000°20'0 0.0
2018-Jun-08 20:54N 39°26' W 000°20'0 0.0
2018-Jun-08 20:30N 39°26' W 000°20'0 0.0
2018-Jun-08 19:45N 39°26' W 000°20'0 0.0
2018-Jun-08 19:30N 39°26' W 000°20'0 0.0
2018-Jun-08 19:00N 39°26' W 000°20'0 0.0
2018-Jun-08 18:27N 39°26' W 000°20'0 0.0
2018-Jun-08 18:00N 39°26' W 000°20'0 0.0
2018-Jun-08 17:30N 39°26' W 000°20'0 0.0
2018-Jun-08 17:00N 39°26' W 000°20'0 0.0
2018-Jun-08 16:30N 39°26' W 000°20'0 0.0
2018-Jun-08 16:00N 39°26' W 000°20'0 0.0
2018-Jun-08 15:30N 39°26' W 000°20'0 0.0
2018-Jun-08 15:00N 39°26' W 000°20'0 0.0
2018-Jun-08 14:24N 39°26' W 000°20'0 0.1
2018-Jun-08 14:00N 39°26' W 000°20'0 0.0
2018-Jun-08 13:30N 39°26' W 000°20'0 0.0
2018-Jun-08 13:00N 39°26' W 000°20'0 0.0
2018-Jun-08 12:30N 39°26' W 000°20'0 0.0
2018-Jun-08 12:00N 39°26' W 000°20'0 0.0
2018-Jun-08 11:30N 39°26' W 000°20'0 0.0
2018-Jun-08 11:00N 39°26' W 000°20'1 2.5
2018-Jun-08 10:30N 39°26' W 000°18'3 6.3
2018-Jun-08 10:00N 39°26' W 000°14'2 3.6
2018-Jun-08 09:30N 39°27' W 000°12'1 2.7
2018-Jun-08 09:00N 39°28' W 000°12'510.9
2018-Jun-08 08:30N 39°32' W 000°07'11812.1
2018-Jun-07 22:50N 40°52' E 001°45'412.7
2018-Jun-07 22:30N 40°56' E 001°49'612.7
2018-Jun-07 22:00N 41°01' E 001°54'612.6
2018-Jun-07 21:30N 41°05' E 001°59'612.6
2018-Jun-07 21:00N 41°10' E 002°04'612.4
2018-Jun-07 20:30N 41°15' E 002°10'4 7.9
2018-Jun-07 20:00N 41°19' E 002°10'1 2.3
2018-Jun-07 19:30N 41°18' E 002°09'0 0.0
2018-Jun-07 19:00N 41°18' E 002°09'0 0.0
2018-Jun-07 18:30N 41°18' E 002°09'0 0.0
2018-Jun-07 18:00N 41°18' E 002°09'0 0.0
2018-Jun-07 17:30N 41°18' E 002°09'0 0.0
2018-Jun-07 17:00N 41°18' E 002°09'0 0.0
2018-Jun-07 16:30N 41°18' E 002°09'0 0.0
2018-Jun-07 16:00N 41°18' E 002°09'0 0.0
2018-Jun-07 15:30N 41°18' E 002°09'0 0.0
2018-Jun-07 15:00N 41°18' E 002°09'0 0.0
2018-Jun-07 14:30N 41°18' E 002°09'0 0.0
2018-Jun-07 14:00N 41°18' E 002°09'0 0.0
2018-Jun-07 13:30N 41°18' E 002°09'0 0.0
2018-Jun-07 13:00N 41°18' E 002°09'0 0.0
2018-Jun-07 12:30N 41°18' E 002°09'0 0.0
2018-Jun-07 12:00N 41°18' E 002°09'0 0.0
2018-Jun-07 11:30N 41°18' E 002°09'0 0.0
2018-Jun-07 11:00N 41°18' E 002°09'0 0.0
2018-Jun-07 10:30N 41°18' E 002°09'1 1.2
2018-Jun-07 10:00N 41°19' E 002°09'2 3.2
2018-Jun-07 09:30N 41°18' E 002°11'5 9.9
2018-Jun-07 09:00N 41°18' E 002°17'714.7
2018-Jun-07 08:30N 41°21' E 002°27'815.6
2018-Jun-07 07:59N 41°25' E 002°36'22317.6
2018-Jun-06 19:20N 43°02' E 007°07'618.1
2018-Jun-06 18:59N 43°05' E 007°15'918.2
2018-Jun-06 18:30N 43°08' E 007°26'917.8
2018-Jun-06 18:00N 43°12' E 007°37'2717.5
2018-Jun-06 16:26N 43°24' E 008°11'917.6
2018-Jun-06 15:57N 43°27' E 008°22'817.9
2018-Jun-06 15:30N 43°30' E 008°32'918.1
2018-Jun-06 15:00N 43°33' E 008°43'918.0
2018-Jun-06 14:30N 43°36' E 008°55'917.8
2018-Jun-06 14:00N 43°39' E 009°07'917.7
2018-Jun-06 13:30N 43°41' E 009°18'917.6
2018-Jun-06 13:00N 43°43' E 009°30'817.1
2018-Jun-06 12:30N 43°46' E 009°41'917.7
2018-Jun-06 12:00N 43°53' E 009°49'917.4
2018-Jun-06 11:30N 44°02' E 009°52'5 9.8
2018-Jun-06 11:00N 44°06' E 009°51'0 0.1
2018-Jun-06 10:25N 44°06' E 009°51'0 0.0
2018-Jun-06 09:58N 44°06' E 009°51'0 0.0
2018-Jun-06 09:28N 44°06' E 009°51'0 0.0
2018-Jun-06 08:55N 44°06' E 009°51'0 0.0
2018-Jun-06 08:28N 44°06' E 009°51'0 0.0
2018-Jun-06 07:58N 44°06' E 009°51'0 0.0
2018-Jun-06 07:28N 44°06' E 009°51'0 0.0
2018-Jun-06 06:58N 44°06' E 009°51'0 0.0
2018-Jun-06 06:28N 44°06' E 009°51'0 0.0
2018-Jun-06 05:58N 44°06' E 009°51'0 0.0
2018-Jun-06 05:28N 44°06' E 009°51'0 0.0
2018-Jun-06 04:58N 44°06' E 009°51'0 0.0
2018-Jun-06 04:28N 44°06' E 009°51'0 0.0
2018-Jun-06 03:58N 44°06' E 009°51'0 0.0
2018-Jun-06 03:28N 44°06' E 009°51'0 0.0
2018-Jun-06 02:58N 44°06' E 009°51'0 0.0
2018-Jun-06 02:28N 44°06' E 009°51'0 0.0
2018-Jun-06 01:58N 44°06' E 009°51'0 0.0
2018-Jun-06 01:28N 44°06' E 009°51'0 0.0
2018-Jun-06 00:58N 44°06' E 009°51'0 0.0
2018-Jun-06 00:28N 44°06' E 009°51'0 0.0
2018-Jun-05 23:58N 44°06' E 009°51'0 0.0
2018-Jun-05 23:28N 44°06' E 009°51'0 0.0
2018-Jun-05 22:58N 44°06' E 009°51'0 0.0
2018-Jun-05 22:28N 44°06' E 009°51'0 0.0
2018-Jun-05 21:58N 44°06' E 009°51'0 0.0
2018-Jun-05 21:28N 44°06' E 009°51'0 0.0
2018-Jun-05 20:58N 44°06' E 009°51'0 0.0
2018-Jun-05 20:28N 44°06' E 009°51'0 0.0
2018-Jun-05 20:01N 44°06' E 009°51'0 0.0
2018-Jun-05 19:31N 44°06' E 009°51'0 0.0
2018-Jun-05 19:01N 44°06' E 009°51'0 0.0
2018-Jun-05 18:30N 44°06' E 009°51'0 0.0
2018-Jun-05 18:00N 44°06' E 009°51'0 0.0
2018-Jun-05 17:30N 44°06' E 009°51'0 0.0
2018-Jun-05 17:00N 44°06' E 009°51'0 0.0
2018-Jun-05 16:30N 44°06' E 009°51'0 0.0
2018-Jun-05 16:00N 44°06' E 009°51'0 0.0
2018-Jun-05 15:30N 44°06' E 009°51'0 0.0
2018-Jun-05 15:00N 44°06' E 009°51'0 0.0
2018-Jun-05 14:30N 44°06' E 009°51'0 0.0
2018-Jun-05 13:57N 44°06' E 009°51'0 0.0
2018-Jun-05 13:30N 44°06' E 009°51'0 0.0
2018-Jun-05 13:00N 44°06' E 009°51'0 0.0
2018-Jun-05 12:30N 44°06' E 009°51'0 0.0
2018-Jun-05 12:00N 44°06' E 009°51'0 0.0
2018-Jun-05 11:30N 44°06' E 009°51'0 0.0
2018-Jun-05 11:00N 44°06' E 009°51'0 0.0
2018-Jun-05 10:30N 44°06' E 009°51'0 0.0
2018-Jun-05 10:00N 44°06' E 009°51'0 0.0
2018-Jun-05 09:30N 44°06' E 009°51'0 0.0
2018-Jun-05 09:00N 44°06' E 009°51'0 0.0
2018-Jun-05 08:30N 44°06' E 009°51'0 0.0
2018-Jun-05 08:00N 44°06' E 009°51'0 0.0
2018-Jun-05 07:30N 44°06' E 009°51'0 0.0
2018-Jun-05 07:00N 44°06' E 009°51'0 0.0
2018-Jun-05 06:30N 44°06' E 009°51'0 0.0
2018-Jun-05 05:57N 44°06' E 009°51'0 0.0
2018-Jun-05 05:30N 44°06' E 009°51'0 0.0
2018-Jun-05 05:00N 44°06' E 009°51'1 1.9
2018-Jun-05 04:31N 44°05' E 009°51'4 8.0
2018-Jun-05 04:00N 44°02' E 009°54'713.5
2018-Jun-05 03:30N 43°55' E 009°55'918.6
2018-Jun-05 03:00N 43°47' E 009°51'919.0
2018-Jun-05 02:30N 43°38' E 009°47'1019.1
2018-Jun-05 02:00N 43°28' E 009°44'1019.4
2018-Jun-05 01:30N 43°19' E 009°41'1019.4
2018-Jun-05 01:00N 43°09' E 009°40'919.1
2018-Jun-05 00:30N 42°60' E 009°39'2119.3
2018-Jun-04 23:26N 42°40' E 009°48'3818.4
2018-Jun-04 21:20N 42°07' E 010°16'819.5
2018-Jun-04 20:55N 42°03' E 010°25'  
Track history (hours):
 
Tides and Currents Weather Stations Pressure Air Temp Water Temp Dewpoint Dewpoint Depression Visibility Wind Speed Wind Dir Waves Ship Positions

MSC Vittoria

Last reported at 2018-Jun-14 15:25 UTC. Time now 2018-Jun-19 08:47 UTC.
Position N 37°49' W 030°19'.

Length 325 m; draft 13.6 m.

Type: Ship (hazmat cat A). MMSI: 372051000.

Date/timePositionNaut miles runAvg speedWind from/ knotsBaromVisibWave heightAir tempDewpointWater temp
2018-Jun-14 15:25N 37°49' W 030°19'820.0
2018-Jun-14 15:00N 37°49' W 030°08'1120.3
2018-Jun-14 14:29N 37°50' W 029°55'1020.2
2018-Jun-14 14:00N 37°52' W 029°43'1020.3
2018-Jun-14 13:30N 37°54' W 029°30'1020.2
2018-Jun-14 13:00N 37°56' W 029°18'1020.0
2018-Jun-14 12:30N 37°58' W 029°05'1020.2
2018-Jun-14 12:00N 37°60' W 028°53'1020.0
2018-Jun-14 11:30N 38°01' W 028°40'1020.5
2018-Jun-14 11:00N 38°03' W 028°27'1020.5
2018-Jun-14 10:30N 38°05' W 028°15'1020.5
2018-Jun-14 10:00N 38°07' W 028°02'1020.2
2018-Jun-14 09:30N 38°09' W 027°49'1020.2
2018-Jun-14 09:00N 38°11' W 027°36'1019.9
2018-Jun-14 08:30N 38°13' W 027°24'1120.9
2018-Jun-14 08:00N 38°15' W 027°11'1020.5
2018-Jun-14 07:30N 38°17' W 026°58'1020.4
2018-Jun-14 07:01N 38°18' W 026°45'1020.8
2018-Jun-14 06:30N 38°20' W 026°32'1020.4
2018-Jun-14 06:00N 38°22' W 026°20'1020.6
2018-Jun-14 05:30N 38°24' W 026°07'1020.4
2018-Jun-14 05:00N 38°26' W 025°54'1020.4
2018-Jun-14 04:30N 38°28' W 025°41'1020.2
2018-Jun-14 04:01N 38°30' W 025°29'1020.6
2018-Jun-14 03:30N 38°32' W 025°15'1020.1
2018-Jun-14 03:00N 38°34' W 025°03'1020.3
2018-Jun-14 02:31N 38°34' W 024°50'1020.3
2018-Jun-14 02:00N 38°33' W 024°37'1020.3
2018-Jun-14 01:30N 38°33' W 024°24'1020.2
2018-Jun-14 01:00N 38°32' W 024°11'1020.3
2018-Jun-14 00:30N 38°31' W 023°58'1020.1
2018-Jun-14 00:00N 38°31' W 023°45'1020.2
2018-Jun-13 23:30N 38°30' W 023°32'1120.4
2018-Jun-13 22:59N 38°30' W 023°19'4820.3
2018-Jun-13 20:36N 38°27' W 022°17'53220.3
2018-Jun-12 18:21N 38°05' W 011°00'1020.5
2018-Jun-12 17:53N 38°04' W 010°48'820.5
2018-Jun-12 17:30N 38°03' W 010°38'1020.3
2018-Jun-12 16:59N 38°02' W 010°25'1720.1
2018-Jun-12 16:07N 38°00' W 010°03'1720.1
2018-Jun-12 15:17N 37°58' W 009°42'720.4
2018-Jun-12 14:56N 37°58' W 009°33'920.3
2018-Jun-12 14:30N 37°57' W 009°22'1020.4
2018-Jun-12 14:01N 37°56' W 009°09'1019.3
2018-Jun-12 13:31N 37°54' W 008°57'510.5
2018-Jun-12 13:00N 37°55' W 008°50'1 1.4
2018-Jun-12 12:30N 37°56' W 008°51'0 0.0
2018-Jun-12 11:57N 37°56' W 008°51'0 0.0
2018-Jun-12 11:30N 37°56' W 008°51'0 0.0
2018-Jun-12 11:00N 37°56' W 008°51'0 0.0
2018-Jun-12 10:30N 37°56' W 008°51'0 0.0
2018-Jun-12 09:57N 37°56' W 008°51'0 0.0
2018-Jun-12 09:30N 37°56' W 008°51'0 0.0
2018-Jun-12 09:00N 37°56' W 008°51'0 0.0
2018-Jun-12 08:30N 37°56' W 008°51'0 0.0
2018-Jun-12 08:00N 37°56' W 008°51'0 0.0
2018-Jun-12 07:30N 37°56' W 008°51'0 0.0
2018-Jun-12 07:00N 37°56' W 008°51'0 0.0
2018-Jun-12 06:30N 37°56' W 008°51'0 0.0
2018-Jun-12 06:00N 37°56' W 008°51'0 0.0
2018-Jun-12 05:30N 37°56' W 008°51'0 0.0
2018-Jun-12 05:00N 37°56' W 008°51'0 0.0
2018-Jun-12 04:30N 37°56' W 008°51'0 0.0
2018-Jun-12 04:00N 37°56' W 008°51'0 0.0
2018-Jun-12 03:30N 37°56' W 008°51'0 0.0
2018-Jun-12 02:57N 37°56' W 008°51'0 0.0
2018-Jun-12 02:30N 37°56' W 008°51'0 0.0
2018-Jun-12 02:00N 37°56' W 008°51'0 0.0
2018-Jun-12 01:30N 37°56' W 008°51'0 0.0
2018-Jun-12 01:00N 37°56' W 008°51'0 0.0
2018-Jun-12 00:27N 37°56' W 008°51'0 0.0
2018-Jun-11 23:57N 37°56' W 008°51'0 0.0
2018-Jun-11 23:30N 37°56' W 008°51'0 0.0
2018-Jun-11 23:00N 37°56' W 008°51'0 0.0
2018-Jun-11 22:30N 37°56' W 008°51'0 0.0
2018-Jun-11 22:00N 37°56' W 008°51'0 0.0
2018-Jun-11 21:30N 37°56' W 008°51'0 0.0
2018-Jun-11 21:00N 37°56' W 008°51'0 0.0
2018-Jun-11 20:27N 37°56' W 008°51'0 0.0
2018-Jun-11 20:00N 37°56' W 008°51'0 0.0
2018-Jun-11 19:30N 37°56' W 008°51'0 0.0
2018-Jun-11 19:00N 37°56' W 008°51'1 1.9
2018-Jun-11 18:30N 37°55' W 008°50'2 3.7
2018-Jun-11 18:00N 37°53' W 008°50'3 5.4
2018-Jun-11 17:30N 37°51' W 008°52'714.4
2018-Jun-11 17:00N 37°44' W 008°56'815.3
2018-Jun-11 16:30N 37°37' W 008°60'612.3
2018-Jun-11 16:00N 37°32' W 009°03'4 8.5
2018-Jun-11 15:28N 37°28' W 009°05'4 5.9
2018-Jun-11 14:46N 37°24' W 009°08'2 6.1
2018-Jun-11 14:29N 37°22' W 009°09'3 6.0
2018-Jun-11 14:00N 37°20' W 009°10'38 5.7
2018-Jun-11 07:19N 36°42' W 009°01'4 9.4
2018-Jun-11 06:54N 36°41' W 008°57'4 9.2
2018-Jun-11 06:30N 36°40' W 008°52'5 9.3
2018-Jun-11 05:58N 36°38' W 008°46'9 9.5
2018-Jun-11 05:01N 36°36' W 008°36'0 9.6
2018-Jun-11 04:59N 36°36' W 008°35'20 9.7
2018-Jun-11 02:55N 36°29' W 008°11'128 9.6
2018-Jun-10 13:29N 35°58' W 005°37'5 9.9
2018-Jun-10 13:00N 35°59' W 005°31'510.3
2018-Jun-10 12:31N 36°01' W 005°25'5 9.4
2018-Jun-10 12:00N 36°06' W 005°24'3 6.6
2018-Jun-10 11:29N 36°09' W 005°26'0 0.4
2018-Jun-10 10:59N 36°09' W 005°26'0 0.0
2018-Jun-10 09:44N 36°09' W 005°26'0 0.0
2018-Jun-10 08:47N 36°09' W 005°26'0 0.0
2018-Jun-10 08:08N 36°09' W 005°26'0 0.0
2018-Jun-10 07:50N 36°09' W 005°26'0 0.0
2018-Jun-10 07:26N 36°09' W 005°26'0 0.0
2018-Jun-10 06:56N 36°09' W 005°26'0 0.1
2018-Jun-10 06:29N 36°09' W 005°26'0 0.0
2018-Jun-10 05:56N 36°09' W 005°26'0 0.0
2018-Jun-10 05:26N 36°09' W 005°26'0 0.0
2018-Jun-10 04:59N 36°09' W 005°26'0 0.0
2018-Jun-10 04:29N 36°09' W 005°26'0 0.0
2018-Jun-10 03:59N 36°09' W 005°26'0 0.0
2018-Jun-10 03:29N 36°09' W 005°26'0 0.0
2018-Jun-10 02:56N 36°09' W 005°26'0 0.0
2018-Jun-10 02:29N 36°09' W 005°26'0 0.0
2018-Jun-10 01:59N 36°09' W 005°26'0 0.0
2018-Jun-10 01:14N 36°09' W 005°26'0 0.0
2018-Jun-10 00:56N 36°09' W 005°26'0 0.0
2018-Jun-10 00:29N 36°09' W 005°26'0 0.0
2018-Jun-10 00:00N 36°09' W 005°26'2 4.1
2018-Jun-09 23:30N 36°08' W 005°24'1 2.6
2018-Jun-09 23:00N 36°07' W 005°23'4 8.0
2018-Jun-09 22:30N 36°05' W 005°19'918.8
2018-Jun-09 22:00N 36°06' W 005°07'18818.2
2018-Jun-09 11:39N 37°00' W 001°23'2219.1
2018-Jun-09 10:31N 37°15' W 001°02'019.0
2018-Jun-09 10:30N 37°15' W 001°02'1019.0
2018-Jun-09 09:58N 37°21' W 000°52'918.8
2018-Jun-09 09:30N 37°27' W 000°44'919.0
2018-Jun-09 09:00N 37°33' W 000°35'1019.3
2018-Jun-09 08:30N 37°41' W 000°28'1019.3
2018-Jun-09 08:00N 37°49' W 000°21'1019.5
2018-Jun-09 07:30N 37°57' W 000°14'1019.5
2018-Jun-09 06:59N 38°05' W 000°07'1919.2
2018-Jun-09 06:01N 38°21' E 000°06'118.4
2018-Jun-09 05:59N 38°22' E 000°06'2218.8
2018-Jun-09 04:51N 38°40' E 000°21'5617.3
2018-Jun-09 01:37N 39°26' W 000°19'0 3.3
2018-Jun-09 01:30N 39°26' W 000°19'1 1.0
2018-Jun-09 00:59N 39°26' W 000°20'0 0.0
2018-Jun-08 22:18N 39°26' W 000°20'0 0.0
2018-Jun-08 22:00N 39°26' W 000°20'0 0.0
2018-Jun-08 20:54N 39°26' W 000°20'0 0.0
2018-Jun-08 20:30N 39°26' W 000°20'0 0.0
2018-Jun-08 19:45N 39°26' W 000°20'0 0.0
2018-Jun-08 19:30N 39°26' W 000°20'0 0.0
2018-Jun-08 19:00N 39°26' W 000°20'0 0.0
2018-Jun-08 18:27N 39°26' W 000°20'0 0.0
2018-Jun-08 18:00N 39°26' W 000°20'0 0.0
2018-Jun-08 17:30N 39°26' W 000°20'0 0.0
2018-Jun-08 17:00N 39°26' W 000°20'0 0.0
2018-Jun-08 16:30N 39°26' W 000°20'0 0.0
2018-Jun-08 16:00N 39°26' W 000°20'0 0.0
2018-Jun-08 15:30N 39°26' W 000°20'0 0.0
2018-Jun-08 15:00N 39°26' W 000°20'0 0.0
2018-Jun-08 14:24N 39°26' W 000°20'0 0.1
2018-Jun-08 14:00N 39°26' W 000°20'0 0.0
2018-Jun-08 13:30N 39°26' W 000°20'0 0.0
2018-Jun-08 13:00N 39°26' W 000°20'0 0.0
2018-Jun-08 12:30N 39°26' W 000°20'0 0.0
2018-Jun-08 12:00N 39°26' W 000°20'0 0.0
2018-Jun-08 11:30N 39°26' W 000°20'0 0.0
2018-Jun-08 11:00N 39°26' W 000°20'1 2.5
2018-Jun-08 10:30N 39°26' W 000°18'3 6.3
2018-Jun-08 10:00N 39°26' W 000°14'2 3.6
2018-Jun-08 09:30N 39°27' W 000°12'1 2.7
2018-Jun-08 09:00N 39°28' W 000°12'510.9
2018-Jun-08 08:30N 39°32' W 000°07'11812.1
2018-Jun-07 22:50N 40°52' E 001°45'412.7
2018-Jun-07 22:30N 40°56' E 001°49'612.7
2018-Jun-07 22:00N 41°01' E 001°54'612.6
2018-Jun-07 21:30N 41°05' E 001°59'612.6
2018-Jun-07 21:00N 41°10' E 002°04'612.4
2018-Jun-07 20:30N 41°15' E 002°10'4 7.9
2018-Jun-07 20:00N 41°19' E 002°10'1 2.3
2018-Jun-07 19:30N 41°18' E 002°09'0 0.0
2018-Jun-07 19:00N 41°18' E 002°09'0 0.0
2018-Jun-07 18:30N 41°18' E 002°09'0 0.0
2018-Jun-07 18:00N 41°18' E 002°09'0 0.0
2018-Jun-07 17:30N 41°18' E 002°09'0 0.0
2018-Jun-07 17:00N 41°18' E 002°09'0 0.0
2018-Jun-07 16:30N 41°18' E 002°09'0 0.0
2018-Jun-07 16:00N 41°18' E 002°09'0 0.0
2018-Jun-07 15:30N 41°18' E 002°09'0 0.0
2018-Jun-07 15:00N 41°18' E 002°09'0 0.0
2018-Jun-07 14:30N 41°18' E 002°09'0 0.0
2018-Jun-07 14:00N 41°18' E 002°09'0 0.0
2018-Jun-07 13:30N 41°18' E 002°09'0 0.0
2018-Jun-07 13:00N 41°18' E 002°09'0 0.0
2018-Jun-07 12:30N 41°18' E 002°09'0 0.0
2018-Jun-07 12:00N 41°18' E 002°09'0 0.0
2018-Jun-07 11:30N 41°18' E 002°09'0 0.0
2018-Jun-07 11:00N 41°18' E 002°09'0 0.0
2018-Jun-07 10:30N 41°18' E 002°09'1 1.2
2018-Jun-07 10:00N 41°19' E 002°09'2 3.2
2018-Jun-07 09:30N 41°18' E 002°11'5 9.9
2018-Jun-07 09:00N 41°18' E 002°17'714.7
2018-Jun-07 08:30N 41°21' E 002°27'815.6
2018-Jun-07 07:59N 41°25' E 002°36'22317.6
2018-Jun-06 19:20N 43°02' E 007°07'618.1
2018-Jun-06 18:59N 43°05' E 007°15'918.2
2018-Jun-06 18:30N 43°08' E 007°26'917.8
2018-Jun-06 18:00N 43°12' E 007°37'2717.5
2018-Jun-06 16:26N 43°24' E 008°11'917.6
2018-Jun-06 15:57N 43°27' E 008°22'817.9
2018-Jun-06 15:30N 43°30' E 008°32'918.1
2018-Jun-06 15:00N 43°33' E 008°43'918.0
2018-Jun-06 14:30N 43°36' E 008°55'917.8
2018-Jun-06 14:00N 43°39' E 009°07'917.7
2018-Jun-06 13:30N 43°41' E 009°18'917.6
2018-Jun-06 13:00N 43°43' E 009°30'817.1
2018-Jun-06 12:30N 43°46' E 009°41'917.7
2018-Jun-06 12:00N 43°53' E 009°49'917.4
2018-Jun-06 11:30N 44°02' E 009°52'5 9.8
2018-Jun-06 11:00N 44°06' E 009°51'0 0.1
2018-Jun-06 10:25N 44°06' E 009°51'0 0.0
2018-Jun-06 09:58N 44°06' E 009°51'0 0.0
2018-Jun-06 09:28N 44°06' E 009°51'0 0.0
2018-Jun-06 08:55N 44°06' E 009°51'0 0.0
2018-Jun-06 08:28N 44°06' E 009°51'0 0.0
2018-Jun-06 07:58N 44°06' E 009°51'0 0.0
2018-Jun-06 07:28N 44°06' E 009°51'0 0.0
2018-Jun-06 06:58N 44°06' E 009°51'0 0.0
2018-Jun-06 06:28N 44°06' E 009°51'0 0.0
2018-Jun-06 05:58N 44°06' E 009°51'0 0.0
2018-Jun-06 05:28N 44°06' E 009°51'0 0.0
2018-Jun-06 04:58N 44°06' E 009°51'0 0.0
2018-Jun-06 04:28N 44°06' E 009°51'0 0.0
2018-Jun-06 03:58N 44°06' E 009°51'0 0.0
2018-Jun-06 03:28N 44°06' E 009°51'0 0.0
2018-Jun-06 02:58N 44°06' E 009°51'0 0.0
2018-Jun-06 02:28N 44°06' E 009°51'0 0.0
2018-Jun-06 01:58N 44°06' E 009°51'0 0.0
2018-Jun-06 01:28N 44°06' E 009°51'0 0.0
2018-Jun-06 00:58N 44°06' E 009°51'0 0.0
2018-Jun-06 00:28N 44°06' E 009°51'0 0.0
2018-Jun-05 23:58N 44°06' E 009°51'0 0.0
2018-Jun-05 23:28N 44°06' E 009°51'0 0.0
2018-Jun-05 22:58N 44°06' E 009°51'0 0.0
2018-Jun-05 22:28N 44°06' E 009°51'0 0.0
2018-Jun-05 21:58N 44°06' E 009°51'0 0.0
2018-Jun-05 21:28N 44°06' E 009°51'0 0.0
2018-Jun-05 20:58N 44°06' E 009°51'0 0.0
2018-Jun-05 20:28N 44°06' E 009°51'0 0.0
2018-Jun-05 20:01N 44°06' E 009°51'0 0.0
2018-Jun-05 19:31N 44°06' E 009°51'0 0.0
2018-Jun-05 19:01N 44°06' E 009°51'0 0.0
2018-Jun-05 18:30N 44°06' E 009°51'0 0.0
2018-Jun-05 18:00N 44°06' E 009°51'0 0.0
2018-Jun-05 17:30N 44°06' E 009°51'0 0.0
2018-Jun-05 17:00N 44°06' E 009°51'0 0.0
2018-Jun-05 16:30N 44°06' E 009°51'0 0.0
2018-Jun-05 16:00N 44°06' E 009°51'0 0.0
2018-Jun-05 15:30N 44°06' E 009°51'0 0.0
2018-Jun-05 15:00N 44°06' E 009°51'0 0.0
2018-Jun-05 14:30N 44°06' E 009°51'0 0.0
2018-Jun-05 13:57N 44°06' E 009°51'0 0.0
2018-Jun-05 13:30N 44°06' E 009°51'0 0.0
2018-Jun-05 13:00N 44°06' E 009°51'0 0.0
2018-Jun-05 12:30N 44°06' E 009°51'0 0.0
2018-Jun-05 12:00N 44°06' E 009°51'0 0.0
2018-Jun-05 11:30N 44°06' E 009°51'0 0.0
2018-Jun-05 11:00N 44°06' E 009°51'0 0.0
2018-Jun-05 10:30N 44°06' E 009°51'0 0.0
2018-Jun-05 10:00N 44°06' E 009°51'0 0.0
2018-Jun-05 09:30N 44°06' E 009°51'0 0.0
2018-Jun-05 09:00N 44°06' E 009°51'0 0.0
2018-Jun-05 08:30N 44°06' E 009°51'0 0.0
2018-Jun-05 08:00N 44°06' E 009°51'0 0.0
2018-Jun-05 07:30N 44°06' E 009°51'0 0.0
2018-Jun-05 07:00N 44°06' E 009°51'0 0.0
2018-Jun-05 06:30N 44°06' E 009°51'0 0.0
2018-Jun-05 05:57N 44°06' E 009°51'0 0.0
2018-Jun-05 05:30N 44°06' E 009°51'0 0.0
2018-Jun-05 05:00N 44°06' E 009°51'1 1.9
2018-Jun-05 04:31N 44°05' E 009°51'4 8.0
2018-Jun-05 04:00N 44°02' E 009°54'713.5
2018-Jun-05 03:30N 43°55' E 009°55'918.6
2018-Jun-05 03:00N 43°47' E 009°51'919.0
2018-Jun-05 02:30N 43°38' E 009°47'1019.1
2018-Jun-05 02:00N 43°28' E 009°44'1019.4
2018-Jun-05 01:30N 43°19' E 009°41'1019.4
2018-Jun-05 01:00N 43°09' E 009°40'919.1
2018-Jun-05 00:30N 42°60' E 009°39'2119.3
2018-Jun-04 23:26N 42°40' E 009°48'3818.4
2018-Jun-04 21:20N 42°07' E 010°16'819.5
2018-Jun-04 20:55N 42°03' E 010°25'  

Dump ship's entire track history